Accueil
METAR-TAF:

METAR-TAF

Aéroports :

Aéroport Federico-Fellini

Rimini, Italie

latitude: 44-02N, longitude: 012-37E, altitude: 12 m

Observation

Le bulletin a été fait il y a 15 minutes, à 22:20 UTC
Vent 5 kt de sud/sud-ouest
Température 24°C
Humidité 38%
Pression 1014 hPa
Visibilité 10 km ou plus

METAR: LIPR 032220Z AUTO 20005KT 9999 BKN190/// 24/09 Q1014

Heure: 00:35 (22:35 UTC)

Prévision

Le bulletin a été fait il y a 5 heures et 35 minutes, à 17:00 UTC
Prévision valable du 03 à 18 UTC au 04 à 18 UTC
Vent 10 kt de est
Visibilité 10 km ou plus
Quelques nuages à une hauteur de 3000 ft
Evoluant progressivement
du 03 à 18 UTC au 03 à 21 UTC
Vent 10 kt de sud-ouest
Evoluant progressivement
du 04 à 08 UTC au 04 à 10 UTC
Vent 15 kt de est

TAF: LIPR 031700Z 0318/0418 10010KT 9999 FEW030 BECMG 0318/0321 22010KT BECMG 0408/0410 10015KT

Observations et prévisions météorologiques de plus de 4000 aéroports (messages METAR et TAF).

Les stations disponibles sont représentées par des disques jaunes et rouges sur la carte.

Passer la souris dessus pour voir le nom de la station.

Cliquer dessus pour voir les observations et prévisions météorologiques.

Pour changer de carte: cliquez sur les boutons verts avec une croix noire pour zoomer, sur le bouton vert avec un tiret pour effectuer un zoom arrière, ou sur les flèches vertes pour les cartes adjacentes.


METAR-TAF: